sensor_id;sensor_type;location;lat;lon;timestamp;P1;durP1;ratioP1;P2;durP2;ratioP2
33696;SDS011;20031;43.416;23.232;2022-10-31T00:00:48;11.15;;;2.70;;
33696;SDS011;20031;43.416;23.232;2022-10-31T00:03:13;10.35;;;2.75;;
33696;SDS011;20031;43.416;23.232;2022-10-31T00:05:43;8.25;;;2.83;;
33696;SDS011;20031;43.416;23.232;2022-10-31T00:08:10;7.70;;;3.00;;
33696;SDS011;20031;43.416;23.232;2022-10-31T00:10:39;9.55;;;2.70;;
33696;SDS011;20031;43.416;23.232;2022-10-31T00:13:05;8.27;;;2.78;;
33696;SDS011;20031;43.416;23.232;2022-10-31T00:15:35;8.00;;;2.60;;
33696;SDS011;20031;43.416;23.232;2022-10-31T00:18:01;10.25;;;3.25;;
33696;SDS011;20031;43.416;23.232;2022-10-31T00:20:28;14.27;;;3.03;;
33696;SDS011;20031;43.416;23.232;2022-10-31T00:22:56;9.82;;;2.65;;
33696;SDS011;20031;43.416;23.232;2022-10-31T00:25:23;11.68;;;3.38;;
33696;SDS011;20031;43.416;23.232;2022-10-31T00:27:48;16.20;;;3.55;;
33696;SDS011;20031;43.416;23.232;2022-10-31T00:30:14;9.85;;;3.72;;
33696;SDS011;20031;43.416;23.232;2022-10-31T00:32:39;13.57;;;3.60;;
33696;SDS011;20031;43.416;23.232;2022-10-31T00:35:05;7.82;;;3.10;;
33696;SDS011;20031;43.416;23.232;2022-10-31T00:37:30;10.32;;;2.70;;
33696;SDS011;20031;43.416;23.232;2022-10-31T00:39:56;6.45;;;2.15;;
33696;SDS011;20031;43.416;23.232;2022-10-31T00:42:21;10.45;;;2.75;;
33696;SDS011;20031;43.416;23.232;2022-10-31T00:44:46;7.75;;;2.40;;
33696;SDS011;20031;43.416;23.232;2022-10-31T00:47:12;7.82;;;2.35;;
33696;SDS011;20031;43.416;23.232;2022-10-31T00:49:37;15.93;;;2.67;;
33696;SDS011;20031;43.416;23.232;2022-10-31T00:52:03;8.52;;;2.28;;
33696;SDS011;20031;43.416;23.232;2022-10-31T00:54:28;9.50;;;2.33;;
33696;SDS011;20031;43.416;23.232;2022-10-31T00:56:55;10.40;;;2.22;;
33696;SDS011;20031;43.416;23.232;2022-10-31T00:59:21;8.45;;;2.50;;
33696;SDS011;20031;43.416;23.232;2022-10-31T01:01:47;9.38;;;2.80;;
33696;SDS011;20031;43.416;23.232;2022-10-31T01:04:12;9.40;;;2.75;;
33696;SDS011;20031;43.416;23.232;2022-10-31T01:06:38;10.25;;;2.67;;
33696;SDS011;20031;43.416;23.232;2022-10-31T01:09:03;9.57;;;2.40;;
33696;SDS011;20031;43.416;23.232;2022-10-31T01:11:29;7.60;;;2.30;;
33696;SDS011;20031;43.416;23.232;2022-10-31T01:13:54;10.23;;;2.60;;
33696;SDS011;20031;43.416;23.232;2022-10-31T01:16:21;10.15;;;2.55;;
33696;SDS011;20031;43.416;23.232;2022-10-31T01:18:49;6.28;;;2.47;;
33696;SDS011;20031;43.416;23.232;2022-10-31T01:21:22;8.32;;;2.25;;
33696;SDS011;20031;43.416;23.232;2022-10-31T01:23:50;7.75;;;2.42;;
33696;SDS011;20031;43.416;23.232;2022-10-31T01:26:18;6.40;;;2.40;;
33696;SDS011;20031;43.416;23.232;2022-10-31T01:28:49;6.70;;;2.20;;
33696;SDS011;20031;43.416;23.232;2022-10-31T01:31:16;7.50;;;2.50;;
33696;SDS011;20031;43.416;23.232;2022-10-31T01:33:44;13.25;;;2.40;;
33696;SDS011;20031;43.416;23.232;2022-10-31T01:36:11;10.32;;;3.20;;
33696;SDS011;20031;43.416;23.232;2022-10-31T01:38:44;9.30;;;2.20;;
33696;SDS011;20031;43.416;23.232;2022-10-31T01:41:12;10.45;;;2.55;;
33696;SDS011;20031;43.416;23.232;2022-10-31T01:43:43;6.60;;;2.40;;
33696;SDS011;20031;43.416;23.232;2022-10-31T01:46:08;7.88;;;2.05;;
33696;SDS011;20031;43.416;23.232;2022-10-31T01:48:34;13.52;;;2.60;;
33696;SDS011;20031;43.416;23.232;2022-10-31T01:50:59;10.45;;;2.65;;
33696;SDS011;20031;43.416;23.232;2022-10-31T01:53:25;12.40;;;2.60;;
33696;SDS011;20031;43.416;23.232;2022-10-31T01:55:51;7.35;;;2.50;;
33696;SDS011;20031;43.416;23.232;2022-10-31T01:58:19;6.07;;;2.40;;
33696;SDS011;20031;43.416;23.232;2022-10-31T02:00:48;7.28;;;2.40;;
33696;SDS011;20031;43.416;23.232;2022-10-31T02:03:18;6.65;;;2.20;;
33696;SDS011;20031;43.416;23.232;2022-10-31T02:05:46;10.00;;;2.50;;
33696;SDS011;20031;43.416;23.232;2022-10-31T02:08:29;14.32;;;2.60;;
33696;SDS011;20031;43.416;23.232;2022-10-31T02:10:56;11.90;;;2.80;;
33696;SDS011;20031;43.416;23.232;2022-10-31T02:13:23;11.80;;;2.83;;
33696;SDS011;20031;43.416;23.232;2022-10-31T02:15:53;10.25;;;3.38;;
33696;SDS011;20031;43.416;23.232;2022-10-31T02:18:20;8.95;;;3.20;;
33696;SDS011;20031;43.416;23.232;2022-10-31T02:21:07;11.65;;;3.75;;
33696;SDS011;20031;43.416;23.232;2022-10-31T02:26:31;8.27;;;3.13;;
33696;SDS011;20031;43.416;23.232;2022-10-31T02:32:20;11.77;;;3.67;;
33696;SDS011;20031;43.416;23.232;2022-10-31T02:35:04;9.98;;;3.60;;
33696;SDS011;20031;43.416;23.232;2022-10-31T02:37:39;10.27;;;3.25;;
33696;SDS011;20031;43.416;23.232;2022-10-31T02:40:12;12.30;;;3.47;;
33696;SDS011;20031;43.416;23.232;2022-10-31T02:47:58;11.45;;;3.28;;
33696;SDS011;20031;43.416;23.232;2022-10-31T02:50:32;15.90;;;4.43;;
33696;SDS011;20031;43.416;23.232;2022-10-31T02:53:01;15.75;;;4.43;;
33696;SDS011;20031;43.416;23.232;2022-10-31T02:58:05;19.70;;;5.07;;
33696;SDS011;20031;43.416;23.232;2022-10-31T03:00:46;28.55;;;5.05;;
33696;SDS011;20031;43.416;23.232;2022-10-31T03:11:43;35.95;;;6.13;;
33696;SDS011;20031;43.416;23.232;2022-10-31T03:14:22;27.50;;;5.10;;
33696;SDS011;20031;43.416;23.232;2022-10-31T03:16:54;14.63;;;3.30;;
33696;SDS011;20031;43.416;23.232;2022-10-31T03:19:31;12.18;;;3.53;;
33696;SDS011;20031;43.416;23.232;2022-10-31T03:22:06;9.13;;;3.03;;
33696;SDS011;20031;43.416;23.232;2022-10-31T03:24:46;9.20;;;2.50;;
33696;SDS011;20031;43.416;23.232;2022-10-31T03:27:15;7.55;;;2.20;;
33696;SDS011;20031;43.416;23.232;2022-10-31T03:29:44;9.70;;;2.72;;
33696;SDS011;20031;43.416;23.232;2022-10-31T03:32:13;7.50;;;2.78;;
33696;SDS011;20031;43.416;23.232;2022-10-31T03:34:42;6.15;;;2.40;;
33696;SDS011;20031;43.416;23.232;2022-10-31T03:37:11;5.45;;;1.83;;
33696;SDS011;20031;43.416;23.232;2022-10-31T03:39:42;18.00;;;2.88;;
33696;SDS011;20031;43.416;23.232;2022-10-31T03:42:17;9.30;;;3.22;;
33696;SDS011;20031;43.416;23.232;2022-10-31T03:44:47;26.67;;;4.22;;
33696;SDS011;20031;43.416;23.232;2022-10-31T03:47:19;14.73;;;3.97;;
33696;SDS011;20031;43.416;23.232;2022-10-31T03:49:44;24.85;;;4.32;;
33696;SDS011;20031;43.416;23.232;2022-10-31T03:57:50;20.60;;;4.25;;
33696;SDS011;20031;43.416;23.232;2022-10-31T04:00:22;15.55;;;3.25;;
33696;SDS011;20031;43.416;23.232;2022-10-31T04:02:53;29.02;;;4.40;;
33696;SDS011;20031;43.416;23.232;2022-10-31T04:05:24;17.80;;;3.15;;
33696;SDS011;20031;43.416;23.232;2022-10-31T04:07:54;10.75;;;2.88;;
33696;SDS011;20031;43.416;23.232;2022-10-31T04:10:21;10.13;;;2.78;;
33696;SDS011;20031;43.416;23.232;2022-10-31T04:12:50;14.23;;;3.20;;
33696;SDS011;20031;43.416;23.232;2022-10-31T04:15:19;20.08;;;3.78;;
33696;SDS011;20031;43.416;23.232;2022-10-31T04:17:46;19.40;;;3.25;;
33696;SDS011;20031;43.416;23.232;2022-10-31T04:20:16;22.27;;;4.30;;
33696;SDS011;20031;43.416;23.232;2022-10-31T04:22:42;23.33;;;4.60;;
33696;SDS011;20031;43.416;23.232;2022-10-31T04:25:07;22.67;;;4.53;;
33696;SDS011;20031;43.416;23.232;2022-10-31T04:27:33;23.58;;;4.50;;
33696;SDS011;20031;43.416;23.232;2022-10-31T04:29:59;22.73;;;4.20;;
33696;SDS011;20031;43.416;23.232;2022-10-31T04:32:24;16.75;;;4.05;;
33696;SDS011;20031;43.416;23.232;2022-10-31T04:34:51;11.32;;;3.80;;
33696;SDS011;20031;43.416;23.232;2022-10-31T04:37:16;15.52;;;3.97;;
33696;SDS011;20031;43.416;23.232;2022-10-31T04:39:41;20.13;;;3.95;;
33696;SDS011;20031;43.416;23.232;2022-10-31T04:42:07;24.35;;;3.92;;
33696;SDS011;20031;43.416;23.232;2022-10-31T04:44:32;16.33;;;3.67;;
33696;SDS011;20031;43.416;23.232;2022-10-31T04:46:58;11.73;;;3.30;;
33696;SDS011;20031;43.416;23.232;2022-10-31T04:49:23;22.13;;;4.22;;
33696;SDS011;20031;43.416;23.232;2022-10-31T04:51:49;22.00;;;5.30;;
33696;SDS011;20031;43.416;23.232;2022-10-31T04:54:14;37.92;;;5.65;;
33696;SDS011;20031;43.416;23.232;2022-10-31T04:56:39;21.88;;;5.28;;
33696;SDS011;20031;43.416;23.232;2022-10-31T04:59:06;23.48;;;6.65;;
33696;SDS011;20031;43.416;23.232;2022-10-31T05:01:31;34.28;;;6.45;;
33696;SDS011;20031;43.416;23.232;2022-10-31T05:03:57;24.77;;;6.28;;
33696;SDS011;20031;43.416;23.232;2022-10-31T05:06:22;35.00;;;7.28;;
33696;SDS011;20031;43.416;23.232;2022-10-31T05:08:48;29.95;;;5.93;;
33696;SDS011;20031;43.416;23.232;2022-10-31T05:11:13;12.32;;;4.38;;
33696;SDS011;20031;43.416;23.232;2022-10-31T05:13:39;50.58;;;8.52;;
33696;SDS011;20031;43.416;23.232;2022-10-31T05:16:04;140.25;;;60.65;;
33696;SDS011;20031;43.416;23.232;2022-10-31T05:18:30;68.10;;;28.42;;
33696;SDS011;20031;43.416;23.232;2022-10-31T05:20:55;45.22;;;13.98;;
33696;SDS011;20031;43.416;23.232;2022-10-31T05:23:21;40.17;;;9.95;;
33696;SDS011;20031;43.416;23.232;2022-10-31T05:25:46;36.55;;;9.43;;
33696;SDS011;20031;43.416;23.232;2022-10-31T05:28:11;10.93;;;3.90;;
33696;SDS011;20031;43.416;23.232;2022-10-31T05:30:37;24.65;;;7.07;;
33696;SDS011;20031;43.416;23.232;2022-10-31T05:33:02;22.92;;;4.32;;
33696;SDS011;20031;43.416;23.232;2022-10-31T05:35:29;27.45;;;7.60;;
33696;SDS011;20031;43.416;23.232;2022-10-31T05:37:56;36.78;;;13.38;;
33696;SDS011;20031;43.416;23.232;2022-10-31T05:40:22;43.50;;;9.68;;
33696;SDS011;20031;43.416;23.232;2022-10-31T05:42:52;65.80;;;10.32;;
33696;SDS011;20031;43.416;23.232;2022-10-31T05:45:19;38.22;;;8.73;;
33696;SDS011;20031;43.416;23.232;2022-10-31T05:47:58;45.97;;;9.25;;
33696;SDS011;20031;43.416;23.232;2022-10-31T05:50:26;64.40;;;9.88;;
33696;SDS011;20031;43.416;23.232;2022-10-31T05:52:56;52.80;;;10.57;;
33696;SDS011;20031;43.416;23.232;2022-10-31T05:55:26;71.55;;;18.70;;
33696;SDS011;20031;43.416;23.232;2022-10-31T05:57:52;31.77;;;8.73;;
33696;SDS011;20031;43.416;23.232;2022-10-31T06:00:19;21.25;;;5.53;;
33696;SDS011;20031;43.416;23.232;2022-10-31T06:02:45;33.95;;;4.30;;
33696;SDS011;20031;43.416;23.232;2022-10-31T06:05:10;22.17;;;4.70;;
33696;SDS011;20031;43.416;23.232;2022-10-31T06:07:36;41.63;;;4.78;;
33696;SDS011;20031;43.416;23.232;2022-10-31T06:10:03;32.63;;;5.28;;
33696;SDS011;20031;43.416;23.232;2022-10-31T06:12:30;20.58;;;4.10;;
33696;SDS011;20031;43.416;23.232;2022-10-31T06:14:55;10.82;;;3.85;;
33696;SDS011;20031;43.416;23.232;2022-10-31T06:17:21;10.63;;;3.45;;
33696;SDS011;20031;43.416;23.232;2022-10-31T06:19:46;13.00;;;3.63;;
33696;SDS011;20031;43.416;23.232;2022-10-31T06:22:12;22.48;;;4.43;;
33696;SDS011;20031;43.416;23.232;2022-10-31T06:24:37;30.48;;;7.82;;
33696;SDS011;20031;43.416;23.232;2022-10-31T06:27:03;26.85;;;6.63;;
33696;SDS011;20031;43.416;23.232;2022-10-31T06:29:29;18.80;;;5.45;;
33696;SDS011;20031;43.416;23.232;2022-10-31T06:31:54;18.90;;;4.20;;
33696;SDS011;20031;43.416;23.232;2022-10-31T06:34:20;19.05;;;4.20;;
33696;SDS011;20031;43.416;23.232;2022-10-31T06:36:46;23.23;;;4.13;;
33696;SDS011;20031;43.416;23.232;2022-10-31T06:39:12;26.08;;;4.57;;
33696;SDS011;20031;43.416;23.232;2022-10-31T06:41:37;28.40;;;4.97;;
33696;SDS011;20031;43.416;23.232;2022-10-31T06:44:04;15.07;;;3.80;;
33696;SDS011;20031;43.416;23.232;2022-10-31T06:46:30;19.05;;;3.35;;
33696;SDS011;20031;43.416;23.232;2022-10-31T06:48:56;16.55;;;3.42;;
33696;SDS011;20031;43.416;23.232;2022-10-31T06:51:21;79.88;;;6.10;;
33696;SDS011;20031;43.416;23.232;2022-10-31T06:53:47;54.28;;;6.18;;
33696;SDS011;20031;43.416;23.232;2022-10-31T06:56:12;77.53;;;6.68;;
33696;SDS011;20031;43.416;23.232;2022-10-31T06:58:38;21.05;;;4.28;;
33696;SDS011;20031;43.416;23.232;2022-10-31T07:01:03;28.63;;;5.00;;
33696;SDS011;20031;43.416;23.232;2022-10-31T07:03:29;24.85;;;4.53;;
33696;SDS011;20031;43.416;23.232;2022-10-31T07:05:54;19.02;;;4.40;;
33696;SDS011;20031;43.416;23.232;2022-10-31T07:08:21;22.73;;;5.47;;
33696;SDS011;20031;43.416;23.232;2022-10-31T07:10:54;21.60;;;5.25;;
33696;SDS011;20031;43.416;23.232;2022-10-31T07:13:22;25.52;;;5.35;;
33696;SDS011;20031;43.416;23.232;2022-10-31T07:15:50;36.08;;;5.47;;
33696;SDS011;20031;43.416;23.232;2022-10-31T07:18:20;29.17;;;5.70;;
33696;SDS011;20031;43.416;23.232;2022-10-31T07:20:46;18.02;;;4.68;;
33696;SDS011;20031;43.416;23.232;2022-10-31T07:23:12;36.22;;;7.30;;
33696;SDS011;20031;43.416;23.232;2022-10-31T07:25:41;24.17;;;4.72;;
33696;SDS011;20031;43.416;23.232;2022-10-31T07:28:06;79.22;;;7.47;;
33696;SDS011;20031;43.416;23.232;2022-10-31T07:30:32;50.03;;;6.63;;
33696;SDS011;20031;43.416;23.232;2022-10-31T07:32:58;40.05;;;9.10;;
33696;SDS011;20031;43.416;23.232;2022-10-31T07:35:24;24.90;;;7.85;;
33696;SDS011;20031;43.416;23.232;2022-10-31T07:37:51;36.58;;;7.32;;
33696;SDS011;20031;43.416;23.232;2022-10-31T07:40:17;23.33;;;5.85;;
33696;SDS011;20031;43.416;23.232;2022-10-31T07:42:44;25.08;;;6.28;;
33696;SDS011;20031;43.416;23.232;2022-10-31T07:45:12;25.75;;;5.13;;
33696;SDS011;20031;43.416;23.232;2022-10-31T07:47:40;30.90;;;5.68;;
33696;SDS011;20031;43.416;23.232;2022-10-31T07:50:07;13.68;;;4.28;;
33696;SDS011;20031;43.416;23.232;2022-10-31T07:52:34;19.10;;;3.80;;
33696;SDS011;20031;43.416;23.232;2022-10-31T07:54:59;13.65;;;3.30;;
33696;SDS011;20031;43.416;23.232;2022-10-31T07:57:25;15.18;;;4.50;;
33696;SDS011;20031;43.416;23.232;2022-10-31T07:59:50;26.58;;;5.18;;
33696;SDS011;20031;43.416;23.232;2022-10-31T08:02:16;20.40;;;3.75;;
33696;SDS011;20031;43.416;23.232;2022-10-31T08:04:41;38.00;;;4.28;;
33696;SDS011;20031;43.416;23.232;2022-10-31T08:07:06;18.88;;;3.72;;
33696;SDS011;20031;43.416;23.232;2022-10-31T08:09:32;28.58;;;4.55;;
33696;SDS011;20031;43.416;23.232;2022-10-31T08:11:57;36.63;;;4.30;;
33696;SDS011;20031;43.416;23.232;2022-10-31T08:14:23;22.60;;;4.03;;
33696;SDS011;20031;43.416;23.232;2022-10-31T08:16:48;24.20;;;3.60;;
33696;SDS011;20031;43.416;23.232;2022-10-31T08:19:13;25.08;;;3.45;;
33696;SDS011;20031;43.416;23.232;2022-10-31T08:21:39;138.93;;;7.28;;
33696;SDS011;20031;43.416;23.232;2022-10-31T08:24:05;34.13;;;3.85;;
33696;SDS011;20031;43.416;23.232;2022-10-31T08:26:30;20.75;;;3.25;;
33696;SDS011;20031;43.416;23.232;2022-10-31T08:28:56;34.47;;;3.78;;
33696;SDS011;20031;43.416;23.232;2022-10-31T08:31:21;36.75;;;4.15;;
33696;SDS011;20031;43.416;23.232;2022-10-31T08:33:48;13.25;;;3.03;;
33696;SDS011;20031;43.416;23.232;2022-10-31T08:36:13;13.32;;;2.50;;
33696;SDS011;20031;43.416;23.232;2022-10-31T08:38:39;17.15;;;3.20;;
33696;SDS011;20031;43.416;23.232;2022-10-31T08:41:04;16.10;;;3.30;;
33696;SDS011;20031;43.416;23.232;2022-10-31T08:43:30;19.05;;;3.72;;
33696;SDS011;20031;43.416;23.232;2022-10-31T08:45:55;18.77;;;4.03;;
33696;SDS011;20031;43.416;23.232;2022-10-31T08:48:21;31.35;;;5.55;;
33696;SDS011;20031;43.416;23.232;2022-10-31T08:50:46;27.63;;;5.57;;
33696;SDS011;20031;43.416;23.232;2022-10-31T08:53:13;50.40;;;4.78;;
33696;SDS011;20031;43.416;23.232;2022-10-31T08:55:43;56.03;;;5.57;;
33696;SDS011;20031;43.416;23.232;2022-10-31T08:58:11;13.38;;;3.15;;
33696;SDS011;20031;43.416;23.232;2022-10-31T09:00:39;26.55;;;3.50;;
33696;SDS011;20031;43.416;23.232;2022-10-31T09:03:15;29.85;;;4.00;;
33696;SDS011;20031;43.416;23.232;2022-10-31T09:05:42;27.83;;;6.55;;
33696;SDS011;20031;43.416;23.232;2022-10-31T09:08:08;21.98;;;5.53;;
33696;SDS011;20031;43.416;23.232;2022-10-31T09:10:35;15.52;;;3.20;;
33696;SDS011;20031;43.416;23.232;2022-10-31T09:13:05;17.88;;;3.08;;
33696;SDS011;20031;43.416;23.232;2022-10-31T09:15:33;19.80;;;3.17;;
33696;SDS011;20031;43.416;23.232;2022-10-31T09:18:00;17.05;;;3.13;;
33696;SDS011;20031;43.416;23.232;2022-10-31T09:20:26;15.93;;;3.20;;
33696;SDS011;20031;43.416;23.232;2022-10-31T09:22:55;14.70;;;3.13;;
33696;SDS011;20031;43.416;23.232;2022-10-31T09:25:24;12.13;;;3.33;;
33696;SDS011;20031;43.416;23.232;2022-10-31T09:27:50;17.45;;;3.10;;
33696;SDS011;20031;43.416;23.232;2022-10-31T09:30:15;15.13;;;3.50;;
33696;SDS011;20031;43.416;23.232;2022-10-31T09:32:41;18.63;;;3.88;;
33696;SDS011;20031;43.416;23.232;2022-10-31T09:35:06;15.55;;;3.50;;
33696;SDS011;20031;43.416;23.232;2022-10-31T09:37:32;15.88;;;4.30;;
33696;SDS011;20031;43.416;23.232;2022-10-31T09:39:58;16.55;;;4.30;;
33696;SDS011;20031;43.416;23.232;2022-10-31T09:42:30;19.40;;;3.75;;
33696;SDS011;20031;43.416;23.232;2022-10-31T09:47:58;20.10;;;4.30;;
33696;SDS011;20031;43.416;23.232;2022-10-31T09:53:05;24.30;;;4.50;;
33696;SDS011;20031;43.416;23.232;2022-10-31T09:55:38;19.42;;;3.90;;
33696;SDS011;20031;43.416;23.232;2022-10-31T09:58:18;14.10;;;3.65;;
33696;SDS011;20031;43.416;23.232;2022-10-31T10:00:45;39.80;;;4.63;;
33696;SDS011;20031;43.416;23.232;2022-10-31T10:06:07;11.77;;;3.80;;
33696;SDS011;20031;43.416;23.232;2022-10-31T10:08:35;37.03;;;4.70;;
33696;SDS011;20031;43.416;23.232;2022-10-31T10:21:22;19.60;;;4.20;;
33696;SDS011;20031;43.416;23.232;2022-10-31T10:30:15;18.65;;;3.72;;
33696;SDS011;20031;43.416;23.232;2022-10-31T10:32:53;19.45;;;3.70;;
33696;SDS011;20031;43.416;23.232;2022-10-31T10:38:14;18.48;;;4.03;;
33696;SDS011;20031;43.416;23.232;2022-10-31T10:40:43;16.73;;;4.03;;
33696;SDS011;20031;43.416;23.232;2022-10-31T10:43:19;24.90;;;4.00;;
33696;SDS011;20031;43.416;23.232;2022-10-31T10:59:43;44.50;;;4.53;;
33696;SDS011;20031;43.416;23.232;2022-10-31T11:02:19;48.85;;;3.63;;
33696;SDS011;20031;43.416;23.232;2022-10-31T11:04:50;21.92;;;4.70;;
33696;SDS011;20031;43.416;23.232;2022-10-31T11:07:17;16.25;;;5.25;;
33696;SDS011;20031;43.416;23.232;2022-10-31T11:09:43;11.35;;;2.83;;
33696;SDS011;20031;43.416;23.232;2022-10-31T11:12:26;19.67;;;2.13;;
33696;SDS011;20031;43.416;23.232;2022-10-31T11:14:56;14.52;;;2.60;;
33696;SDS011;20031;43.416;23.232;2022-10-31T11:20:19;19.92;;;3.08;;
33696;SDS011;20031;43.416;23.232;2022-10-31T11:22:47;11.77;;;2.65;;
33696;SDS011;20031;43.416;23.232;2022-10-31T11:27:45;18.20;;;2.40;;
33696;SDS011;20031;43.416;23.232;2022-10-31T11:30:14;13.32;;;2.85;;
33696;SDS011;20031;43.416;23.232;2022-10-31T11:32:46;8.45;;;2.50;;
33696;SDS011;20031;43.416;23.232;2022-10-31T11:35:14;10.52;;;2.28;;
33696;SDS011;20031;43.416;23.232;2022-10-31T11:37:43;6.65;;;2.22;;
33696;SDS011;20031;43.416;23.232;2022-10-31T11:40:14;8.10;;;1.90;;
33696;SDS011;20031;43.416;23.232;2022-10-31T11:42:42;11.95;;;2.53;;
33696;SDS011;20031;43.416;23.232;2022-10-31T11:45:16;17.65;;;3.28;;
33696;SDS011;20031;43.416;23.232;2022-10-31T11:47:49;17.08;;;3.17;;
33696;SDS011;20031;43.416;23.232;2022-10-31T11:50:24;26.48;;;4.93;;
33696;SDS011;20031;43.416;23.232;2022-10-31T11:52:54;18.50;;;2.80;;
33696;SDS011;20031;43.416;23.232;2022-10-31T11:55:33;11.70;;;2.53;;
33696;SDS011;20031;43.416;23.232;2022-10-31T11:58:01;17.10;;;2.80;;
33696;SDS011;20031;43.416;23.232;2022-10-31T12:00:32;11.27;;;2.67;;
33696;SDS011;20031;43.416;23.232;2022-10-31T12:03:12;22.13;;;3.05;;
33696;SDS011;20031;43.416;23.232;2022-10-31T12:05:53;17.90;;;2.83;;
33696;SDS011;20031;43.416;23.232;2022-10-31T12:08:19;11.55;;;2.60;;
33696;SDS011;20031;43.416;23.232;2022-10-31T12:13:39;13.93;;;2.58;;
33696;SDS011;20031;43.416;23.232;2022-10-31T12:16:24;15.93;;;2.83;;
33696;SDS011;20031;43.416;23.232;2022-10-31T12:25:07;14.75;;;3.15;;
33696;SDS011;20031;43.416;23.232;2022-10-31T12:44:37;13.15;;;2.53;;
33696;SDS011;20031;43.416;23.232;2022-10-31T12:57:44;8.60;;;2.25;;
33696;SDS011;20031;43.416;23.232;2022-10-31T13:00:16;12.88;;;2.67;;
33696;SDS011;20031;43.416;23.232;2022-10-31T13:07:57;12.43;;;2.60;;
33696;SDS011;20031;43.416;23.232;2022-10-31T13:10:27;12.52;;;2.35;;
33696;SDS011;20031;43.416;23.232;2022-10-31T13:13:01;19.65;;;3.00;;
33696;SDS011;20031;43.416;23.232;2022-10-31T13:15:41;10.07;;;2.85;;
33696;SDS011;20031;43.416;23.232;2022-10-31T13:18:15;11.00;;;3.22;;
33696;SDS011;20031;43.416;23.232;2022-10-31T13:20:50;41.25;;;5.70;;
33696;SDS011;20031;43.416;23.232;2022-10-31T13:23:26;22.80;;;4.80;;
33696;SDS011;20031;43.416;23.232;2022-10-31T13:25:56;16.05;;;3.75;;
33696;SDS011;20031;43.416;23.232;2022-10-31T13:31:01;11.38;;;2.60;;
33696;SDS011;20031;43.416;23.232;2022-10-31T13:33:34;21.80;;;4.43;;
33696;SDS011;20031;43.416;23.232;2022-10-31T13:36:09;10.93;;;2.67;;
33696;SDS011;20031;43.416;23.232;2022-10-31T13:46:50;10.88;;;2.88;;
33696;SDS011;20031;43.416;23.232;2022-10-31T13:49:24;81.43;;;6.50;;
33696;SDS011;20031;43.416;23.232;2022-10-31T13:54:34;22.13;;;3.55;;
33696;SDS011;20031;43.416;23.232;2022-10-31T13:57:01;9.75;;;2.35;;
33696;SDS011;20031;43.416;23.232;2022-10-31T13:59:31;38.45;;;4.18;;
33696;SDS011;20031;43.416;23.232;2022-10-31T14:02:02;46.15;;;3.55;;
33696;SDS011;20031;43.416;23.232;2022-10-31T14:05:18;10.35;;;2.53;;
33696;SDS011;20031;43.416;23.232;2022-10-31T14:07:45;34.83;;;3.85;;
33696;SDS011;20031;43.416;23.232;2022-10-31T14:10:28;16.15;;;2.72;;
33696;SDS011;20031;43.416;23.232;2022-10-31T14:13:03;23.52;;;2.70;;
33696;SDS011;20031;43.416;23.232;2022-10-31T14:16:02;25.23;;;4.65;;
33696;SDS011;20031;43.416;23.232;2022-10-31T14:18:36;50.38;;;4.97;;
33696;SDS011;20031;43.416;23.232;2022-10-31T14:23:47;70.63;;;7.57;;
33696;SDS011;20031;43.416;23.232;2022-10-31T14:28:51;40.92;;;4.78;;
33696;SDS011;20031;43.416;23.232;2022-10-31T14:36:50;110.15;;;6.97;;
33696;SDS011;20031;43.416;23.232;2022-10-31T14:40:22;52.40;;;4.70;;
33696;SDS011;20031;43.416;23.232;2022-10-31T14:53:23;133.82;;;10.48;;
33696;SDS011;20031;43.416;23.232;2022-10-31T14:56:02;101.50;;;13.57;;
33696;SDS011;20031;43.416;23.232;2022-10-31T14:58:36;88.78;;;14.63;;
33696;SDS011;20031;43.416;23.232;2022-10-31T15:01:04;81.25;;;16.48;;
33696;SDS011;20031;43.416;23.232;2022-10-31T15:03:32;116.15;;;13.48;;
33696;SDS011;20031;43.416;23.232;2022-10-31T15:06:03;111.15;;;14.40;;
33696;SDS011;20031;43.416;23.232;2022-10-31T15:08:39;156.32;;;17.45;;
33696;SDS011;20031;43.416;23.232;2022-10-31T15:11:13;161.82;;;18.30;;
33696;SDS011;20031;43.416;23.232;2022-10-31T15:13:41;119.85;;;15.93;;
33696;SDS011;20031;43.416;23.232;2022-10-31T15:16:08;119.22;;;14.45;;
33696;SDS011;20031;43.416;23.232;2022-10-31T15:18:36;75.95;;;12.23;;
33696;SDS011;20031;43.416;23.232;2022-10-31T15:21:11;77.07;;;9.57;;
33696;SDS011;20031;43.416;23.232;2022-10-31T15:23:41;86.88;;;11.00;;
33696;SDS011;20031;43.416;23.232;2022-10-31T15:26:11;86.53;;;11.88;;
33696;SDS011;20031;43.416;23.232;2022-10-31T15:29:03;68.80;;;9.95;;
33696;SDS011;20031;43.416;23.232;2022-10-31T15:31:31;75.80;;;11.27;;
33696;SDS011;20031;43.416;23.232;2022-10-31T15:33:59;71.47;;;11.20;;
33696;SDS011;20031;43.416;23.232;2022-10-31T15:36:30;72.60;;;10.82;;
33696;SDS011;20031;43.416;23.232;2022-10-31T15:38:55;99.88;;;12.40;;
33696;SDS011;20031;43.416;23.232;2022-10-31T15:44:28;69.72;;;13.90;;
33696;SDS011;20031;43.416;23.232;2022-10-31T15:46:57;67.30;;;14.32;;
33696;SDS011;20031;43.416;23.232;2022-10-31T15:49:35;64.85;;;15.68;;
33696;SDS011;20031;43.416;23.232;2022-10-31T15:52:04;73.78;;;17.08;;
33696;SDS011;20031;43.416;23.232;2022-10-31T15:54:44;61.13;;;17.13;;
33696;SDS011;20031;43.416;23.232;2022-10-31T15:57:12;75.95;;;16.80;;
33696;SDS011;20031;43.416;23.232;2022-10-31T15:59:40;90.95;;;18.75;;
33696;SDS011;20031;43.416;23.232;2022-10-31T16:02:18;82.95;;;17.23;;
33696;SDS011;20031;43.416;23.232;2022-10-31T16:05:14;65.80;;;16.38;;
33696;SDS011;20031;43.416;23.232;2022-10-31T16:07:47;60.95;;;15.95;;
33696;SDS011;20031;43.416;23.232;2022-10-31T16:10:22;77.90;;;15.75;;
33696;SDS011;20031;43.416;23.232;2022-10-31T16:12:50;67.20;;;16.13;;
33696;SDS011;20031;43.416;23.232;2022-10-31T16:15:16;73.28;;;13.98;;
33696;SDS011;20031;43.416;23.232;2022-10-31T16:17:45;58.47;;;10.82;;
33696;SDS011;20031;43.416;23.232;2022-10-31T16:20:25;30.63;;;7.78;;
33696;SDS011;20031;43.416;23.232;2022-10-31T16:22:52;19.38;;;5.50;;
33696;SDS011;20031;43.416;23.232;2022-10-31T16:25:27;30.95;;;6.40;;
33696;SDS011;20031;43.416;23.232;2022-10-31T16:28:49;32.33;;;5.38;;
33696;SDS011;20031;43.416;23.232;2022-10-31T16:30:50;34.38;;;5.00;;
33696;SDS011;20031;43.416;23.232;2022-10-31T16:33:24;21.40;;;5.32;;
33696;SDS011;20031;43.416;23.232;2022-10-31T16:35:59;24.98;;;5.80;;
33696;SDS011;20031;43.416;23.232;2022-10-31T16:38:45;19.52;;;5.20;;
33696;SDS011;20031;43.416;23.232;2022-10-31T16:41:11;27.80;;;5.18;;
33696;SDS011;20031;43.416;23.232;2022-10-31T16:43:36;26.00;;;5.00;;
33696;SDS011;20031;43.416;23.232;2022-10-31T16:46:02;31.58;;;6.53;;
33696;SDS011;20031;43.416;23.232;2022-10-31T16:48:28;29.90;;;5.55;;
33696;SDS011;20031;43.416;23.232;2022-10-31T16:50:54;34.42;;;5.65;;
33696;SDS011;20031;43.416;23.232;2022-10-31T16:53:19;30.92;;;4.93;;
33696;SDS011;20031;43.416;23.232;2022-10-31T16:55:50;24.00;;;4.75;;
33696;SDS011;20031;43.416;23.232;2022-10-31T16:58:24;37.10;;;5.63;;
33696;SDS011;20031;43.416;23.232;2022-10-31T17:00:52;30.92;;;5.43;;
33696;SDS011;20031;43.416;23.232;2022-10-31T17:03:18;23.58;;;5.07;;
33696;SDS011;20031;43.416;23.232;2022-10-31T17:05:44;25.98;;;5.32;;
33696;SDS011;20031;43.416;23.232;2022-10-31T17:08:10;24.65;;;4.40;;